sensor_id;sensor_type;location;lat;lon;timestamp;P1;durP1;ratioP1;P2;durP2;ratioP2
55732;SDS011;41637;52.364;9.910;2023-03-04T00:01:33;32.50;;;7.30;;
55732;SDS011;41637;52.364;9.910;2023-03-04T00:04:00;53.50;;;12.50;;
55732;SDS011;41637;52.364;9.910;2023-03-04T00:06:27;36.20;;;7.50;;
55732;SDS011;41637;52.364;9.910;2023-03-04T00:08:57;23.80;;;6.70;;
55732;SDS011;41637;52.364;9.910;2023-03-04T00:11:27;32.30;;;8.70;;
55732;SDS011;41637;52.364;9.910;2023-03-04T00:13:54;49.30;;;9.70;;
55732;SDS011;41637;52.364;9.910;2023-03-04T00:16:21;32.90;;;7.60;;
55732;SDS011;41637;52.364;9.910;2023-03-04T00:18:52;40.10;;;9.60;;
55732;SDS011;41637;52.364;9.910;2023-03-04T00:21:22;33.50;;;8.10;;
55732;SDS011;41637;52.364;9.910;2023-03-04T00:23:49;26.80;;;6.80;;
55732;SDS011;41637;52.364;9.910;2023-03-04T00:26:16;21.60;;;4.70;;
55732;SDS011;41637;52.364;9.910;2023-03-04T00:28:44;30.10;;;7.80;;
55732;SDS011;41637;52.364;9.910;2023-03-04T00:31:11;38.30;;;8.70;;
55732;SDS011;41637;52.364;9.910;2023-03-04T00:33:38;33.00;;;7.80;;
55732;SDS011;41637;52.364;9.910;2023-03-04T00:36:05;27.20;;;6.40;;
55732;SDS011;41637;52.364;9.910;2023-03-04T00:38:33;23.90;;;5.50;;
55732;SDS011;41637;52.364;9.910;2023-03-04T00:41:03;30.60;;;8.50;;
55732;SDS011;41637;52.364;9.910;2023-03-04T00:43:30;18.80;;;5.10;;
55732;SDS011;41637;52.364;9.910;2023-03-04T00:46:01;20.30;;;4.80;;
55732;SDS011;41637;52.364;9.910;2023-03-04T00:48:28;14.70;;;4.10;;
55732;SDS011;41637;52.364;9.910;2023-03-04T00:50:55;16.80;;;4.20;;
55732;SDS011;41637;52.364;9.910;2023-03-04T00:53:22;17.40;;;4.30;;
55732;SDS011;41637;52.364;9.910;2023-03-04T00:55:50;16.10;;;5.20;;
55732;SDS011;41637;52.364;9.910;2023-03-04T00:58:17;23.10;;;5.40;;
55732;SDS011;41637;52.364;9.910;2023-03-04T01:00:46;19.10;;;5.30;;
55732;SDS011;41637;52.364;9.910;2023-03-04T01:03:14;15.60;;;5.10;;
55732;SDS011;41637;52.364;9.910;2023-03-04T01:05:41;16.90;;;4.60;;
55732;SDS011;41637;52.364;9.910;2023-03-04T01:08:08;22.80;;;6.10;;
55732;SDS011;41637;52.364;9.910;2023-03-04T01:10:38;16.60;;;4.00;;
55732;SDS011;41637;52.364;9.910;2023-03-04T01:13:08;17.10;;;5.60;;
55732;SDS011;41637;52.364;9.910;2023-03-04T01:15:35;21.00;;;4.90;;
55732;SDS011;41637;52.364;9.910;2023-03-04T01:18:02;18.10;;;4.10;;
55732;SDS011;41637;52.364;9.910;2023-03-04T01:20:29;16.20;;;4.10;;
55732;SDS011;41637;52.364;9.910;2023-03-04T01:22:56;15.60;;;4.20;;
55732;SDS011;41637;52.364;9.910;2023-03-04T01:25:24;18.20;;;4.10;;
55732;SDS011;41637;52.364;9.910;2023-03-04T01:27:51;18.80;;;4.30;;
55732;SDS011;41637;52.364;9.910;2023-03-04T01:30:21;21.00;;;4.80;;
55732;SDS011;41637;52.364;9.910;2023-03-04T01:32:48;25.50;;;5.30;;
55732;SDS011;41637;52.364;9.910;2023-03-04T01:35:15;18.00;;;4.60;;
55732;SDS011;41637;52.364;9.910;2023-03-04T01:37:42;14.80;;;3.70;;
55732;SDS011;41637;52.364;9.910;2023-03-04T01:40:09;16.70;;;3.90;;
55732;SDS011;41637;52.364;9.910;2023-03-04T01:42:40;13.50;;;3.80;;
55732;SDS011;41637;52.364;9.910;2023-03-04T01:45:09;14.10;;;4.30;;
55732;SDS011;41637;52.364;9.910;2023-03-04T01:47:38;18.80;;;3.70;;
55732;SDS011;41637;52.364;9.910;2023-03-04T01:50:06;16.90;;;3.70;;
55732;SDS011;41637;52.364;9.910;2023-03-04T01:52:41;14.60;;;3.70;;
55732;SDS011;41637;52.364;9.910;2023-03-04T01:55:15;14.00;;;3.50;;
55732;SDS011;41637;52.364;9.910;2023-03-04T01:57:45;15.70;;;3.70;;
55732;SDS011;41637;52.364;9.910;2023-03-04T02:00:24;18.30;;;3.10;;
55732;SDS011;41637;52.364;9.910;2023-03-04T02:02:54;12.60;;;3.00;;
55732;SDS011;41637;52.364;9.910;2023-03-04T02:05:25;14.80;;;3.00;;
55732;SDS011;41637;52.364;9.910;2023-03-04T02:07:52;11.10;;;3.00;;
55732;SDS011;41637;52.364;9.910;2023-03-04T02:10:21;14.10;;;2.90;;
55732;SDS011;41637;52.364;9.910;2023-03-04T02:12:53;14.80;;;3.10;;
55732;SDS011;41637;52.364;9.910;2023-03-04T02:15:20;14.70;;;2.90;;
55732;SDS011;41637;52.364;9.910;2023-03-04T02:17:51;12.70;;;2.50;;
55732;SDS011;41637;52.364;9.910;2023-03-04T02:23:36;10.00;;;2.30;;
55732;SDS011;41637;52.364;9.910;2023-03-04T02:26:19;12.40;;;2.50;;
55732;SDS011;41637;52.364;9.910;2023-03-04T02:28:51;12.80;;;2.80;;
55732;SDS011;41637;52.364;9.910;2023-03-04T02:31:21;13.40;;;3.30;;
55732;SDS011;41637;52.364;9.910;2023-03-04T02:33:51;13.50;;;2.60;;
55732;SDS011;41637;52.364;9.910;2023-03-04T02:36:20;14.60;;;2.80;;
55732;SDS011;41637;52.364;9.910;2023-03-04T02:38:53;10.40;;;2.60;;
55732;SDS011;41637;52.364;9.910;2023-03-04T02:41:22;12.30;;;2.70;;
55732;SDS011;41637;52.364;9.910;2023-03-04T02:43:54;13.20;;;3.60;;
55732;SDS011;41637;52.364;9.910;2023-03-04T02:46:21;12.80;;;2.70;;
55732;SDS011;41637;52.364;9.910;2023-03-04T02:48:49;11.80;;;2.50;;
55732;SDS011;41637;52.364;9.910;2023-03-04T02:51:16;10.60;;;2.50;;
55732;SDS011;41637;52.364;9.910;2023-03-04T02:53:45;12.40;;;2.80;;
55732;SDS011;41637;52.364;9.910;2023-03-04T02:56:13;12.80;;;3.20;;
55732;SDS011;41637;52.364;9.910;2023-03-04T02:58:40;11.10;;;2.50;;
55732;SDS011;41637;52.364;9.910;2023-03-04T03:01:07;8.10;;;2.30;;
55732;SDS011;41637;52.364;9.910;2023-03-04T03:03:35;11.20;;;2.80;;
55732;SDS011;41637;52.364;9.910;2023-03-04T03:06:02;9.70;;;2.30;;
55732;SDS011;41637;52.364;9.910;2023-03-04T03:08:32;11.90;;;2.70;;
55732;SDS011;41637;52.364;9.910;2023-03-04T03:10:59;14.30;;;3.10;;
55732;SDS011;41637;52.364;9.910;2023-03-04T03:13:27;10.50;;;2.60;;
55732;SDS011;41637;52.364;9.910;2023-03-04T03:15:55;10.40;;;2.70;;
55732;SDS011;41637;52.364;9.910;2023-03-04T03:18:26;11.20;;;2.00;;
55732;SDS011;41637;52.364;9.910;2023-03-04T03:20:52;11.70;;;2.20;;
55732;SDS011;41637;52.364;9.910;2023-03-04T03:23:19;9.70;;;2.40;;
55732;SDS011;41637;52.364;9.910;2023-03-04T03:25:50;9.50;;;2.50;;
55732;SDS011;41637;52.364;9.910;2023-03-04T03:28:19;8.70;;;1.90;;
55732;SDS011;41637;52.364;9.910;2023-03-04T03:30:47;10.30;;;2.50;;
55732;SDS011;41637;52.364;9.910;2023-03-04T03:33:16;10.50;;;2.60;;
55732;SDS011;41637;52.364;9.910;2023-03-04T03:35:43;11.20;;;2.30;;
55732;SDS011;41637;52.364;9.910;2023-03-04T03:38:10;11.00;;;2.20;;
55732;SDS011;41637;52.364;9.910;2023-03-04T03:40:38;11.60;;;1.90;;
55732;SDS011;41637;52.364;9.910;2023-03-04T03:43:06;8.00;;;1.90;;
55732;SDS011;41637;52.364;9.910;2023-03-04T03:45:36;6.50;;;2.00;;
55732;SDS011;41637;52.364;9.910;2023-03-04T03:48:03;10.10;;;2.20;;
55732;SDS011;41637;52.364;9.910;2023-03-04T03:50:31;9.80;;;1.70;;
55732;SDS011;41637;52.364;9.910;2023-03-04T03:52:58;7.10;;;1.90;;
55732;SDS011;41637;52.364;9.910;2023-03-04T03:55:28;11.70;;;2.10;;
55732;SDS011;41637;52.364;9.910;2023-03-04T03:57:55;7.90;;;2.30;;
55732;SDS011;41637;52.364;9.910;2023-03-04T04:00:22;8.90;;;2.00;;
55732;SDS011;41637;52.364;9.910;2023-03-04T04:02:54;9.90;;;2.00;;
55732;SDS011;41637;52.364;9.910;2023-03-04T04:05:32;5.60;;;1.30;;
55732;SDS011;41637;52.364;9.910;2023-03-04T04:08:03;11.50;;;1.80;;
55732;SDS011;41637;52.364;9.910;2023-03-04T04:10:33;10.30;;;2.00;;
55732;SDS011;41637;52.364;9.910;2023-03-04T04:13:03;8.80;;;2.00;;
55732;SDS011;41637;52.364;9.910;2023-03-04T04:15:30;9.60;;;1.90;;
55732;SDS011;41637;52.364;9.910;2023-03-04T04:17:57;7.80;;;2.30;;
55732;SDS011;41637;52.364;9.910;2023-03-04T04:20:27;7.50;;;2.00;;
55732;SDS011;41637;52.364;9.910;2023-03-04T04:22:54;7.60;;;1.70;;
55732;SDS011;41637;52.364;9.910;2023-03-04T04:25:21;4.80;;;1.40;;
55732;SDS011;41637;52.364;9.910;2023-03-04T04:27:48;7.40;;;2.10;;
55732;SDS011;41637;52.364;9.910;2023-03-04T04:30:21;8.20;;;2.10;;
55732;SDS011;41637;52.364;9.910;2023-03-04T04:32:47;8.60;;;1.70;;
55732;SDS011;41637;52.364;9.910;2023-03-04T04:35:14;10.00;;;1.90;;
55732;SDS011;41637;52.364;9.910;2023-03-04T04:37:44;8.60;;;2.10;;
55732;SDS011;41637;52.364;9.910;2023-03-04T04:40:11;10.00;;;2.30;;
55732;SDS011;41637;52.364;9.910;2023-03-04T04:42:38;11.00;;;2.30;;
55732;SDS011;41637;52.364;9.910;2023-03-04T04:45:06;7.70;;;2.00;;
55732;SDS011;41637;52.364;9.910;2023-03-04T04:47:33;8.50;;;1.90;;
55732;SDS011;41637;52.364;9.910;2023-03-04T04:50:00;9.00;;;1.90;;
55732;SDS011;41637;52.364;9.910;2023-03-04T04:52:27;8.90;;;1.80;;
55732;SDS011;41637;52.364;9.910;2023-03-04T04:54:54;7.80;;;2.30;;
55732;SDS011;41637;52.364;9.910;2023-03-04T04:57:22;9.90;;;1.80;;
55732;SDS011;41637;52.364;9.910;2023-03-04T04:59:54;7.80;;;1.90;;
55732;SDS011;41637;52.364;9.910;2023-03-04T05:02:21;6.60;;;1.50;;
55732;SDS011;41637;52.364;9.910;2023-03-04T05:04:49;8.90;;;2.00;;
55732;SDS011;41637;52.364;9.910;2023-03-04T05:07:16;8.40;;;2.10;;
55732;SDS011;41637;52.364;9.910;2023-03-04T05:09:43;9.10;;;1.50;;
55732;SDS011;41637;52.364;9.910;2023-03-04T05:12:11;12.00;;;2.30;;
55732;SDS011;41637;52.364;9.910;2023-03-04T05:14:38;10.40;;;2.00;;
55732;SDS011;41637;52.364;9.910;2023-03-04T05:17:08;13.60;;;1.80;;
55732;SDS011;41637;52.364;9.910;2023-03-04T05:19:40;10.50;;;2.30;;
55732;SDS011;41637;52.364;9.910;2023-03-04T05:22:07;8.50;;;1.70;;
55732;SDS011;41637;52.364;9.910;2023-03-04T05:24:34;5.00;;;1.50;;
55732;SDS011;41637;52.364;9.910;2023-03-04T05:27:10;10.10;;;2.20;;
55732;SDS011;41637;52.364;9.910;2023-03-04T05:29:37;9.90;;;1.90;;
55732;SDS011;41637;52.364;9.910;2023-03-04T05:32:11;9.30;;;1.90;;
55732;SDS011;41637;52.364;9.910;2023-03-04T05:34:39;9.30;;;1.50;;
55732;SDS011;41637;52.364;9.910;2023-03-04T05:37:06;14.30;;;2.40;;
55732;SDS011;41637;52.364;9.910;2023-03-04T05:39:33;10.80;;;1.80;;
55732;SDS011;41637;52.364;9.910;2023-03-04T05:42:00;8.20;;;2.10;;
55732;SDS011;41637;52.364;9.910;2023-03-04T05:44:27;5.70;;;1.50;;
55732;SDS011;41637;52.364;9.910;2023-03-04T05:46:54;8.60;;;1.70;;
55732;SDS011;41637;52.364;9.910;2023-03-04T05:49:21;7.80;;;2.00;;
55732;SDS011;41637;52.364;9.910;2023-03-04T05:51:48;7.80;;;2.10;;
55732;SDS011;41637;52.364;9.910;2023-03-04T05:54:15;7.40;;;1.60;;
55732;SDS011;41637;52.364;9.910;2023-03-04T05:56:44;8.20;;;2.20;;
55732;SDS011;41637;52.364;9.910;2023-03-04T05:59:12;8.00;;;1.70;;
55732;SDS011;41637;52.364;9.910;2023-03-04T06:01:46;9.30;;;1.70;;
55732;SDS011;41637;52.364;9.910;2023-03-04T06:04:13;7.30;;;1.60;;
55732;SDS011;41637;52.364;9.910;2023-03-04T06:06:40;8.30;;;1.60;;
55732;SDS011;41637;52.364;9.910;2023-03-04T06:09:07;6.70;;;1.50;;
55732;SDS011;41637;52.364;9.910;2023-03-04T06:11:34;7.20;;;2.10;;
55732;SDS011;41637;52.364;9.910;2023-03-04T06:14:04;8.20;;;1.50;;
55732;SDS011;41637;52.364;9.910;2023-03-04T06:16:33;6.30;;;1.70;;
55732;SDS011;41637;52.364;9.910;2023-03-04T06:19:01;7.30;;;1.90;;
55732;SDS011;41637;52.364;9.910;2023-03-04T06:21:28;10.00;;;2.10;;
55732;SDS011;41637;52.364;9.910;2023-03-04T06:23:55;10.40;;;1.80;;
55732;SDS011;41637;52.364;9.910;2023-03-04T06:26:25;7.40;;;1.80;;
55732;SDS011;41637;52.364;9.910;2023-03-04T06:28:52;7.00;;;1.70;;
55732;SDS011;41637;52.364;9.910;2023-03-04T06:31:22;8.20;;;2.00;;
55732;SDS011;41637;52.364;9.910;2023-03-04T06:33:49;9.80;;;1.50;;
55732;SDS011;41637;52.364;9.910;2023-03-04T06:36:16;5.70;;;1.50;;
55732;SDS011;41637;52.364;9.910;2023-03-04T06:38:43;7.50;;;1.80;;
55732;SDS011;41637;52.364;9.910;2023-03-04T06:41:11;8.40;;;1.50;;
55732;SDS011;41637;52.364;9.910;2023-03-04T06:43:39;9.30;;;1.90;;
55732;SDS011;41637;52.364;9.910;2023-03-04T06:46:07;8.50;;;1.80;;
55732;SDS011;41637;52.364;9.910;2023-03-04T06:48:34;7.50;;;1.70;;
55732;SDS011;41637;52.364;9.910;2023-03-04T06:51:05;9.30;;;1.60;;
55732;SDS011;41637;52.364;9.910;2023-03-04T06:53:32;8.10;;;1.60;;
55732;SDS011;41637;52.364;9.910;2023-03-04T06:56:00;8.40;;;1.60;;
55732;SDS011;41637;52.364;9.910;2023-03-04T06:58:27;4.40;;;1.40;;
55732;SDS011;41637;52.364;9.910;2023-03-04T07:00:54;6.30;;;1.70;;
55732;SDS011;41637;52.364;9.910;2023-03-04T07:03:21;4.80;;;1.10;;
55732;SDS011;41637;52.364;9.910;2023-03-04T07:05:50;9.70;;;2.10;;
55732;SDS011;41637;52.364;9.910;2023-03-04T07:08:20;7.70;;;1.60;;
55732;SDS011;41637;52.364;9.910;2023-03-04T07:10:49;9.90;;;1.90;;
55732;SDS011;41637;52.364;9.910;2023-03-04T07:13:19;7.00;;;1.60;;
55732;SDS011;41637;52.364;9.910;2023-03-04T07:15:47;7.30;;;1.70;;
55732;SDS011;41637;52.364;9.910;2023-03-04T07:18:14;9.10;;;2.20;;
55732;SDS011;41637;52.364;9.910;2023-03-04T07:20:42;9.30;;;2.30;;
55732;SDS011;41637;52.364;9.910;2023-03-04T07:23:09;9.60;;;1.80;;
55732;SDS011;41637;52.364;9.910;2023-03-04T07:25:36;6.90;;;2.00;;
55732;SDS011;41637;52.364;9.910;2023-03-04T07:28:03;7.30;;;1.80;;
55732;SDS011;41637;52.364;9.910;2023-03-04T07:30:30;6.70;;;1.80;;
55732;SDS011;41637;52.364;9.910;2023-03-04T07:32:57;7.80;;;2.20;;
55732;SDS011;41637;52.364;9.910;2023-03-04T07:35:28;6.30;;;1.80;;
55732;SDS011;41637;52.364;9.910;2023-03-04T07:37:54;5.50;;;1.40;;
55732;SDS011;41637;52.364;9.910;2023-03-04T07:40:22;7.10;;;1.70;;
55732;SDS011;41637;52.364;9.910;2023-03-04T07:42:49;9.40;;;1.70;;
55732;SDS011;41637;52.364;9.910;2023-03-04T07:45:17;6.80;;;1.90;;
55732;SDS011;41637;52.364;9.910;2023-03-04T07:47:44;7.90;;;2.10;;
55732;SDS011;41637;52.364;9.910;2023-03-04T07:50:12;7.80;;;2.00;;
55732;SDS011;41637;52.364;9.910;2023-03-04T07:52:44;8.80;;;2.10;;
55732;SDS011;41637;52.364;9.910;2023-03-04T07:55:16;5.00;;;2.00;;
55732;SDS011;41637;52.364;9.910;2023-03-04T07:57:44;8.90;;;2.60;;
55732;SDS011;41637;52.364;9.910;2023-03-04T08:00:13;7.00;;;2.50;;
55732;SDS011;41637;52.364;9.910;2023-03-04T08:02:41;8.10;;;2.70;;
55732;SDS011;41637;52.364;9.910;2023-03-04T08:05:08;6.20;;;2.40;;
55732;SDS011;41637;52.364;9.910;2023-03-04T08:07:38;5.80;;;2.10;;
55732;SDS011;41637;52.364;9.910;2023-03-04T08:10:05;7.80;;;2.80;;
55732;SDS011;41637;52.364;9.910;2023-03-04T08:12:34;8.50;;;2.90;;
55732;SDS011;41637;52.364;9.910;2023-03-04T08:15:02;8.80;;;3.40;;
55732;SDS011;41637;52.364;9.910;2023-03-04T08:17:32;10.50;;;4.60;;
55732;SDS011;41637;52.364;9.910;2023-03-04T08:19:58;10.40;;;4.10;;
55732;SDS011;41637;52.364;9.910;2023-03-04T08:22:25;8.20;;;3.20;;
55732;SDS011;41637;52.364;9.910;2023-03-04T08:24:52;6.60;;;2.20;;
55732;SDS011;41637;52.364;9.910;2023-03-04T08:27:19;8.00;;;2.10;;
55732;SDS011;41637;52.364;9.910;2023-03-04T08:29:46;7.60;;;2.40;;
55732;SDS011;41637;52.364;9.910;2023-03-04T08:32:13;7.10;;;2.60;;
55732;SDS011;41637;52.364;9.910;2023-03-04T08:34:40;4.30;;;1.80;;
55732;SDS011;41637;52.364;9.910;2023-03-04T08:37:07;8.00;;;3.00;;
55732;SDS011;41637;52.364;9.910;2023-03-04T08:39:36;7.30;;;3.00;;
55732;SDS011;41637;52.364;9.910;2023-03-04T08:42:03;6.20;;;2.50;;
55732;SDS011;41637;52.364;9.910;2023-03-04T08:44:30;8.00;;;2.60;;
55732;SDS011;41637;52.364;9.910;2023-03-04T08:46:57;8.10;;;3.10;;
55732;SDS011;41637;52.364;9.910;2023-03-04T08:49:24;7.40;;;3.30;;
55732;SDS011;41637;52.364;9.910;2023-03-04T08:51:59;7.30;;;3.10;;
55732;SDS011;41637;52.364;9.910;2023-03-04T08:54:31;11.00;;;4.70;;
55732;SDS011;41637;52.364;9.910;2023-03-04T08:56:58;11.80;;;5.30;;
55732;SDS011;41637;52.364;9.910;2023-03-04T08:59:25;13.40;;;7.20;;
55732;SDS011;41637;52.364;9.910;2023-03-04T09:01:52;12.20;;;6.90;;
55732;SDS011;41637;52.364;9.910;2023-03-04T09:04:19;12.50;;;6.50;;
55732;SDS011;41637;52.364;9.910;2023-03-04T09:06:47;15.00;;;6.80;;
55732;SDS011;41637;52.364;9.910;2023-03-04T09:09:14;11.30;;;7.30;;
55732;SDS011;41637;52.364;9.910;2023-03-04T09:11:41;12.00;;;7.10;;
55732;SDS011;41637;52.364;9.910;2023-03-04T09:14:10;11.40;;;6.00;;
55732;SDS011;41637;52.364;9.910;2023-03-04T09:16:38;10.70;;;4.70;;
55732;SDS011;41637;52.364;9.910;2023-03-04T09:19:05;9.20;;;4.20;;
55732;SDS011;41637;52.364;9.910;2023-03-04T09:21:32;8.20;;;3.80;;
55732;SDS011;41637;52.364;9.910;2023-03-04T09:24:02;15.30;;;6.10;;
55732;SDS011;41637;52.364;9.910;2023-03-04T09:26:29;40.40;;;14.00;;
55732;SDS011;41637;52.364;9.910;2023-03-04T09:28:57;22.90;;;9.00;;
55732;SDS011;41637;52.364;9.910;2023-03-04T09:31:28;43.10;;;15.40;;
55732;SDS011;41637;52.364;9.910;2023-03-04T09:33:58;13.60;;;5.20;;
55732;SDS011;41637;52.364;9.910;2023-03-04T09:36:25;43.90;;;18.60;;
55732;SDS011;41637;52.364;9.910;2023-03-04T09:38:58;17.60;;;7.30;;
55732;SDS011;41637;52.364;9.910;2023-03-04T09:41:29;14.10;;;6.30;;
55732;SDS011;41637;52.364;9.910;2023-03-04T09:44:04;19.50;;;7.50;;
55732;SDS011;41637;52.364;9.910;2023-03-04T09:46:40;60.70;;;23.40;;
55732;SDS011;41637;52.364;9.910;2023-03-04T09:49:10;77.10;;;31.60;;
55732;SDS011;41637;52.364;9.910;2023-03-04T10:00:15;24.20;;;8.30;;
55732;SDS011;41637;52.364;9.910;2023-03-04T10:05:38;18.90;;;6.60;;
55732;SDS011;41637;52.364;9.910;2023-03-04T10:11:04;34.80;;;15.80;;
55732;SDS011;41637;52.364;9.910;2023-03-04T10:13:50;20.40;;;7.10;;
55732;SDS011;41637;52.364;9.910;2023-03-04T10:16:20;16.60;;;6.80;;
55732;SDS011;41637;52.364;9.910;2023-03-04T10:19:10;35.70;;;15.10;;
55732;SDS011;41637;52.364;9.910;2023-03-04T10:21:51;30.00;;;14.00;;
55732;SDS011;41637;52.364;9.910;2023-03-04T10:24:19;38.50;;;16.90;;
55732;SDS011;41637;52.364;9.910;2023-03-04T10:26:51;33.70;;;14.90;;
55732;SDS011;41637;52.364;9.910;2023-03-04T10:29:24;37.20;;;18.80;;
55732;SDS011;41637;52.364;9.910;2023-03-04T10:31:55;22.00;;;11.20;;
55732;SDS011;41637;52.364;9.910;2023-03-04T10:34:22;28.30;;;13.20;;
55732;SDS011;41637;52.364;9.910;2023-03-04T10:37:00;29.50;;;17.10;;
55732;SDS011;41637;52.364;9.910;2023-03-04T10:39:33;16.70;;;7.40;;
55732;SDS011;41637;52.364;9.910;2023-03-04T10:42:04;26.30;;;15.00;;
55732;SDS011;41637;52.364;9.910;2023-03-04T10:44:54;34.50;;;17.40;;
55732;SDS011;41637;52.364;9.910;2023-03-04T10:47:30;29.40;;;14.90;;
55732;SDS011;41637;52.364;9.910;2023-03-04T10:49:59;24.00;;;8.50;;
55732;SDS011;41637;52.364;9.910;2023-03-04T10:52:37;23.00;;;8.20;;
55732;SDS011;41637;52.364;9.910;2023-03-04T10:55:15;22.90;;;10.80;;
55732;SDS011;41637;52.364;9.910;2023-03-04T10:57:57;15.30;;;4.30;;
55732;SDS011;41637;52.364;9.910;2023-03-04T11:00:30;10.30;;;2.80;;
55732;SDS011;41637;52.364;9.910;2023-03-04T11:05:48;9.90;;;2.30;;
55732;SDS011;41637;52.364;9.910;2023-03-04T11:08:32;9.80;;;2.40;;
55732;SDS011;41637;52.364;9.910;2023-03-04T11:10:59;10.20;;;2.20;;
55732;SDS011;41637;52.364;9.910;2023-03-04T11:13:26;5.70;;;1.30;;
55732;SDS011;41637;52.364;9.910;2023-03-04T11:16:03;6.40;;;1.60;;
55732;SDS011;41637;52.364;9.910;2023-03-04T11:18:52;9.30;;;1.60;;
55732;SDS011;41637;52.364;9.910;2023-03-04T11:21:23;6.50;;;1.60;;
55732;SDS011;41637;52.364;9.910;2023-03-04T11:23:56;9.90;;;2.30;;
55732;SDS011;41637;52.364;9.910;2023-03-04T11:26:42;6.60;;;1.80;;
55732;SDS011;41637;52.364;9.910;2023-03-04T11:29:14;7.20;;;1.70;;
55732;SDS011;41637;52.364;9.910;2023-03-04T11:32:12;5.90;;;1.50;;
55732;SDS011;41637;52.364;9.910;2023-03-04T11:43:18;9.30;;;2.10;;
55732;SDS011;41637;52.364;9.910;2023-03-04T11:52:08;10.20;;;3.70;;
55732;SDS011;41637;52.364;9.910;2023-03-04T11:57:29;20.70;;;11.00;;
55732;SDS011;41637;52.364;9.910;2023-03-04T12:10:54;11.60;;;6.30;;
55732;SDS011;41637;52.364;9.910;2023-03-04T12:19:58;5.20;;;1.80;;
55732;SDS011;41637;52.364;9.910;2023-03-04T12:28:38;4.50;;;1.70;;
55732;SDS011;41637;52.364;9.910;2023-03-04T12:31:20;7.00;;;1.60;;
55732;SDS011;41637;52.364;9.910;2023-03-04T12:39:32;7.50;;;1.80;;
55732;SDS011;41637;52.364;9.910;2023-03-04T12:44:54;6.90;;;1.80;;
55732;SDS011;41637;52.364;9.910;2023-03-04T12:47:39;4.80;;;1.60;;
55732;SDS011;41637;52.364;9.910;2023-03-04T12:53:45;6.30;;;2.10;;
55732;SDS011;41637;52.364;9.910;2023-03-04T12:56:07;6.40;;;2.10;;
55732;SDS011;41637;52.364;9.910;2023-03-04T12:59:09;6.50;;;2.50;;
55732;SDS011;41637;52.364;9.910;2023-03-04T13:01:52;5.50;;;1.80;;
55732;SDS011;41637;52.364;9.910;2023-03-04T13:10:15;4.40;;;2.30;;
55732;SDS011;41637;52.364;9.910;2023-03-04T13:12:48;9.90;;;3.80;;
55732;SDS011;41637;52.364;9.910;2023-03-04T13:17:54;8.90;;;3.30;;
55732;SDS011;41637;52.364;9.910;2023-03-04T13:20:33;6.30;;;2.40;;
55732;SDS011;41637;52.364;9.910;2023-03-04T13:26:21;4.60;;;1.40;;
55732;SDS011;41637;52.364;9.910;2023-03-04T13:28:21;6.80;;;1.70;;
55732;SDS011;41637;52.364;9.910;2023-03-04T13:31:17;5.70;;;1.60;;
55732;SDS011;41637;52.364;9.910;2023-03-04T13:33:50;6.00;;;1.70;;
55732;SDS011;41637;52.364;9.910;2023-03-04T13:36:27;8.10;;;4.00;;
55732;SDS011;41637;52.364;9.910;2023-03-04T13:39:00;12.10;;;4.00;;
55732;SDS011;41637;52.364;9.910;2023-03-04T13:41:37;17.10;;;8.00;;
55732;SDS011;41637;52.364;9.910;2023-03-04T13:47:14;5.40;;;1.90;;
55732;SDS011;41637;52.364;9.910;2023-03-04T13:49:42;5.60;;;2.00;;
55732;SDS011;41637;52.364;9.910;2023-03-04T13:58:41;8.10;;;2.30;;
55732;SDS011;41637;52.364;9.910;2023-03-04T14:01:27;8.70;;;1.70;;
55732;SDS011;41637;52.364;9.910;2023-03-04T14:03:57;7.90;;;2.20;;
55732;SDS011;41637;52.364;9.910;2023-03-04T14:06:30;7.50;;;2.30;;
55732;SDS011;41637;52.364;9.910;2023-03-04T14:08:58;7.40;;;2.40;;
55732;SDS011;41637;52.364;9.910;2023-03-04T14:11:33;11.70;;;2.70;;
55732;SDS011;41637;52.364;9.910;2023-03-04T14:14:09;10.40;;;2.70;;
55732;SDS011;41637;52.364;9.910;2023-03-04T14:16:46;17.00;;;5.70;;
55732;SDS011;41637;52.364;9.910;2023-03-04T14:22:27;16.00;;;5.20;;
55732;SDS011;41637;52.364;9.910;2023-03-04T14:25:04;13.50;;;4.10;;
55732;SDS011;41637;52.364;9.910;2023-03-04T14:27:45;7.80;;;2.20;;
55732;SDS011;41637;52.364;9.910;2023-03-04T14:30:20;8.00;;;2.80;;
55732;SDS011;41637;52.364;9.910;2023-03-04T14:33:11;9.90;;;2.50;;
55732;SDS011;41637;52.364;9.910;2023-03-04T14:35:46;8.20;;;2.50;;
55732;SDS011;41637;52.364;9.910;2023-03-04T14:38:21;8.70;;;2.50;;
55732;SDS011;41637;52.364;9.910;2023-03-04T14:40:59;9.30;;;2.40;;
55732;SDS011;41637;52.364;9.910;2023-03-04T14:43:35;8.10;;;2.10;;
55732;SDS011;41637;52.364;9.910;2023-03-04T14:46:07;5.90;;;1.80;;
55732;SDS011;41637;52.364;9.910;2023-03-04T14:48:38;9.10;;;2.00;;
55732;SDS011;41637;52.364;9.910;2023-03-04T14:54:04;8.00;;;1.80;;
55732;SDS011;41637;52.364;9.910;2023-03-04T14:56:34;8.70;;;2.50;;
55732;SDS011;41637;52.364;9.910;2023-03-04T14:59:02;11.20;;;3.30;;
55732;SDS011;41637;52.364;9.910;2023-03-04T15:04:06;7.60;;;1.80;;
55732;SDS011;41637;52.364;9.910;2023-03-04T15:06:37;8.80;;;1.80;;
55732;SDS011;41637;52.364;9.910;2023-03-04T15:11:47;7.80;;;1.90;;
55732;SDS011;41637;52.364;9.910;2023-03-04T15:25:02;8.00;;;2.30;;
55732;SDS011;41637;52.364;9.910;2023-03-04T15:27:29;8.60;;;2.10;;
55732;SDS011;41637;52.364;9.910;2023-03-04T15:29:57;8.90;;;2.70;;
55732;SDS011;41637;52.364;9.910;2023-03-04T15:32:26;11.40;;;2.70;;
55732;SDS011;41637;52.364;9.910;2023-03-04T15:34:55;10.30;;;2.80;;
55732;SDS011;41637;52.364;9.910;2023-03-04T15:37:23;10.30;;;2.20;;
55732;SDS011;41637;52.364;9.910;2023-03-04T15:39:56;11.80;;;2.50;;
55732;SDS011;41637;52.364;9.910;2023-03-04T15:42:26;8.90;;;2.20;;
55732;SDS011;41637;52.364;9.910;2023-03-04T15:44:54;8.90;;;2.00;;
55732;SDS011;41637;52.364;9.910;2023-03-04T15:47:20;11.40;;;2.50;;
55732;SDS011;41637;52.364;9.910;2023-03-04T15:49:50;13.30;;;3.60;;
55732;SDS011;41637;52.364;9.910;2023-03-04T15:52:21;10.90;;;2.90;;
55732;SDS011;41637;52.364;9.910;2023-03-04T15:54:48;9.60;;;2.70;;
55732;SDS011;41637;52.364;9.910;2023-03-04T15:57:19;10.40;;;2.70;;
55732;SDS011;41637;52.364;9.910;2023-03-04T15:59:48;9.10;;;2.60;;
55732;SDS011;41637;52.364;9.910;2023-03-04T16:02:23;6.00;;;2.20;;
55732;SDS011;41637;52.364;9.910;2023-03-04T16:04:52;13.10;;;3.50;;
55732;SDS011;41637;52.364;9.910;2023-03-04T16:07:21;11.40;;;2.60;;
55732;SDS011;41637;52.364;9.910;2023-03-04T16:09:52;13.60;;;2.90;;
55732;SDS011;41637;52.364;9.910;2023-03-04T16:12:25;9.90;;;2.40;;
55732;SDS011;41637;52.364;9.910;2023-03-04T16:14:52;9.10;;;2.40;;
55732;SDS011;41637;52.364;9.910;2023-03-04T16:17:20;8.70;;;2.60;;
55732;SDS011;41637;52.364;9.910;2023-03-04T16:19:49;9.10;;;2.40;;
55732;SDS011;41637;52.364;9.910;2023-03-04T16:22:17;10.50;;;2.80;;
55732;SDS011;41637;52.364;9.910;2023-03-04T16:24:49;8.80;;;2.20;;
55732;SDS011;41637;52.364;9.910;2023-03-04T16:27:19;8.70;;;2.40;;
55732;SDS011;41637;52.364;9.910;2023-03-04T16:29:47;11.20;;;1.90;;
55732;SDS011;41637;52.364;9.910;2023-03-04T16:32:14;8.30;;;2.20;;
55732;SDS011;41637;52.364;9.910;2023-03-04T16:34:41;10.70;;;2.90;;
55732;SDS011;41637;52.364;9.910;2023-03-04T16:37:12;7.20;;;1.90;;
55732;SDS011;41637;52.364;9.910;2023-03-04T16:39:43;10.30;;;2.50;;
55732;SDS011;41637;52.364;9.910;2023-03-04T16:42:14;9.00;;;2.40;;
55732;SDS011;41637;52.364;9.910;2023-03-04T16:44:44;10.00;;;2.80;;
55732;SDS011;41637;52.364;9.910;2023-03-04T16:47:25;14.20;;;4.00;;
55732;SDS011;41637;52.364;9.910;2023-03-04T16:49:55;7.80;;;1.60;;
55732;SDS011;41637;52.364;9.910;2023-03-04T16:52:25;8.50;;;2.20;;
55732;SDS011;41637;52.364;9.910;2023-03-04T16:54:55;9.50;;;2.50;;